createdAt,value
2019-02-04T00:00:34.141Z,4.40
2019-02-04T00:03:02.729Z,4.40
2019-02-04T00:05:31.148Z,4.40
2019-02-04T00:07:59.576Z,4.40
2019-02-04T00:10:27.999Z,4.40
2019-02-04T00:12:56.413Z,4.40
2019-02-04T00:15:25.102Z,4.40
2019-02-04T00:17:53.554Z,4.40
2019-02-04T00:20:22.021Z,4.40
2019-02-04T00:22:50.441Z,4.40
2019-02-04T00:25:21.492Z,4.50
2019-02-04T00:27:49.070Z,4.50
2019-02-04T00:30:20.145Z,4.40
2019-02-04T00:32:48.656Z,4.40
2019-02-04T00:35:17.082Z,4.40
2019-02-04T00:37:45.495Z,4.30
2019-02-04T00:40:19.630Z,4.30
2019-02-04T00:42:48.593Z,4.30
2019-02-04T00:45:17.025Z,4.20
2019-02-04T00:47:45.441Z,4.20
2019-02-04T00:50:16.473Z,4.20
2019-02-04T00:52:44.892Z,4.20
2019-02-04T00:55:13.743Z,4.20
2019-02-04T00:57:42.603Z,4.20
2019-02-04T01:00:22.969Z,4.10
2019-02-04T01:02:51.454Z,4.10
2019-02-04T01:05:20.587Z,4.10
2019-02-04T01:07:49.752Z,4.10
2019-02-04T01:10:24.219Z,4.10
2019-02-04T01:12:52.719Z,4.10
2019-02-04T01:15:21.391Z,4.10
2019-02-04T01:17:49.928Z,4.10
2019-02-04T01:20:21.490Z,4.10
2019-02-04T01:22:50.072Z,4.10
2019-02-04T01:25:18.624Z,4.00
2019-02-04T01:27:47.166Z,4.00
2019-02-04T01:30:18.785Z,3.90
2019-02-04T01:32:47.284Z,3.90
2019-02-04T01:35:15.949Z,3.90
2019-02-04T01:37:44.946Z,3.90
2019-02-04T01:40:18.842Z,3.90
2019-02-04T01:42:47.321Z,3.90
2019-02-04T01:45:15.820Z,3.90
2019-02-04T01:47:44.314Z,3.90
2019-02-04T01:50:15.078Z,3.90
2019-02-04T01:52:43.604Z,3.90
2019-02-04T01:55:13.740Z,3.90
2019-02-04T01:57:42.261Z,3.90
2019-02-04T02:00:31.066Z,3.90
2019-02-04T02:02:59.668Z,3.90
2019-02-04T02:05:28.064Z,3.90
2019-02-04T02:07:56.729Z,3.90
2019-02-04T02:10:26.693Z,3.80
2019-02-04T02:12:55.321Z,3.80
2019-02-04T02:15:23.875Z,3.80
2019-02-04T02:17:52.469Z,3.80
2019-02-04T02:20:23.521Z,3.80
2019-02-04T02:22:51.995Z,3.80
2019-02-04T02:25:20.496Z,3.80
2019-02-04T02:27:48.989Z,3.80
2019-02-04T02:30:23.293Z,3.80
2019-02-04T02:32:51.777Z,3.70
2019-02-04T02:35:20.284Z,3.70
2019-02-04T02:37:48.767Z,3.70
2019-02-04T02:40:28.805Z,3.70
2019-02-04T02:42:57.557Z,3.70
2019-02-04T02:45:26.058Z,3.70
2019-02-04T02:47:54.533Z,3.70
2019-02-04T02:50:23.919Z,3.70
2019-02-04T02:52:52.383Z,3.60
2019-02-04T02:55:20.977Z,3.60
2019-02-04T02:57:49.526Z,3.60
2019-02-04T03:00:26.541Z,3.60
2019-02-04T03:02:55.072Z,3.50
2019-02-04T03:05:23.748Z,3.50
2019-02-04T03:07:52.333Z,3.50
2019-02-04T03:10:25.927Z,3.50
2019-02-04T03:12:54.568Z,3.40
2019-02-04T03:15:23.081Z,3.40
2019-02-04T03:17:52.671Z,3.30
2019-02-04T03:20:21.609Z,3.30
2019-02-04T03:22:50.151Z,3.30
2019-02-04T03:25:18.648Z,3.20
2019-02-04T03:27:47.087Z,3.10
2019-02-04T03:30:26.987Z,3.10
2019-02-04T03:32:55.569Z,3.10
2019-02-04T03:35:24.109Z,3.00
2019-02-04T03:37:52.706Z,3.10
2019-02-04T03:40:26.984Z,3.10
2019-02-04T03:42:55.538Z,3.10
2019-02-04T03:45:24.214Z,3.00
2019-02-04T03:48:04.167Z,3.00
2019-02-04T03:50:23.355Z,2.90
2019-02-04T03:52:52.297Z,2.90
2019-02-04T03:55:20.927Z,2.90
2019-02-04T03:57:49.631Z,2.90
2019-02-04T04:00:20.585Z,2.80
2019-02-04T04:02:49.225Z,2.80
2019-02-04T04:05:17.709Z,2.80
2019-02-04T04:07:46.425Z,2.70
2019-02-04T04:10:15.294Z,2.70
2019-02-04T04:12:43.745Z,2.70
2019-02-04T04:15:13.992Z,2.60
2019-02-04T04:17:42.429Z,2.60
2019-02-04T04:20:16.384Z,2.60
2019-02-04T04:22:44.883Z,2.50
2019-02-04T04:25:15.913Z,2.50
2019-02-04T04:27:44.428Z,2.50
2019-02-04T04:30:15.968Z,2.40
2019-02-04T04:32:44.451Z,2.50
2019-02-04T04:35:13.608Z,2.50
2019-02-04T04:37:42.175Z,2.60
2019-02-04T04:40:12.337Z,2.60
2019-02-04T04:42:40.847Z,2.60
2019-02-04T04:45:12.465Z,2.60
2019-02-04T04:47:40.926Z,2.60
2019-02-04T04:50:09.839Z,2.50
2019-02-04T04:52:38.366Z,2.50
2019-02-04T04:55:16.092Z,2.40
2019-02-04T04:57:44.531Z,2.40
2019-02-04T05:00:16.041Z,2.30
2019-02-04T05:02:44.753Z,2.30
2019-02-04T05:05:14.102Z,2.30
2019-02-04T05:07:42.601Z,2.20
2019-02-04T05:10:13.881Z,2.20
2019-02-04T05:12:42.337Z,2.20
2019-02-04T05:15:13.909Z,2.10
2019-02-04T05:17:42.346Z,2.10
2019-02-04T05:20:13.493Z,2.10
2019-02-04T05:22:41.924Z,2.10
2019-02-04T05:25:10.505Z,2.00
2019-02-04T05:27:38.925Z,2.00
2019-02-04T05:30:16.200Z,2.00
2019-02-04T05:32:44.613Z,2.00
2019-02-04T05:35:13.211Z,2.00
2019-02-04T05:37:41.776Z,2.00
2019-02-04T05:40:13.029Z,2.00
2019-02-04T05:42:41.606Z,2.10
2019-02-04T05:45:12.477Z,2.00
2019-02-04T05:47:40.915Z,2.00
2019-02-04T05:50:11.665Z,2.00
2019-02-04T05:52:40.180Z,1.90
2019-02-04T05:55:09.160Z,1.90
2019-02-04T05:57:38.141Z,1.80
2019-02-04T06:00:12.580Z,1.80
2019-02-04T06:02:41.079Z,1.90
2019-02-04T06:05:11.588Z,1.80
2019-02-04T06:07:40.077Z,1.80
2019-02-04T06:10:10.480Z,1.70
2019-02-04T06:12:38.990Z,1.70
2019-02-04T06:15:12.745Z,1.70
2019-02-04T06:17:41.178Z,1.60
2019-02-04T06:20:20.561Z,1.60
2019-02-04T06:22:49.048Z,1.60
2019-02-04T06:25:17.573Z,1.60
2019-02-04T06:27:47.284Z,1.60
2019-02-04T06:30:17.254Z,1.60
2019-02-04T06:32:45.763Z,1.50
2019-02-04T06:35:15.729Z,1.60
2019-02-04T06:37:46.649Z,1.70
2019-02-04T06:40:18.340Z,1.70
2019-02-04T06:42:46.791Z,1.70
2019-02-04T06:45:16.848Z,1.70
2019-02-04T06:47:45.432Z,1.60
2019-02-04T06:50:15.684Z,1.60
2019-02-04T06:52:44.138Z,1.60
2019-02-04T06:55:15.313Z,1.50
2019-02-04T06:57:43.757Z,1.50
2019-02-04T07:00:17.149Z,1.50
2019-02-04T07:02:45.767Z,1.50
2019-02-04T07:05:14.807Z,1.50
2019-02-04T07:07:43.365Z,1.50
2019-02-04T07:10:17.572Z,1.50
2019-02-04T07:12:46.005Z,1.40
2019-02-04T07:15:14.665Z,1.40
2019-02-04T07:17:43.159Z,1.50
2019-02-04T07:20:20.645Z,1.60
2019-02-04T07:22:49.257Z,1.70
2019-02-04T07:25:17.937Z,1.70
2019-02-04T07:27:46.570Z,1.60
2019-02-04T07:30:20.347Z,1.60
2019-02-04T07:32:49.239Z,1.60
2019-02-04T07:35:19.249Z,1.50
2019-02-04T07:37:48.119Z,1.50
2019-02-04T07:40:22.359Z,1.50
2019-02-04T07:42:51.923Z,1.60
2019-02-04T07:45:20.713Z,1.60
2019-02-04T07:47:49.582Z,1.60
2019-02-04T07:50:18.169Z,1.50
2019-02-04T07:52:46.666Z,1.60
2019-02-04T07:55:15.469Z,1.60
2019-02-04T07:57:44.023Z,1.60
2019-02-04T08:00:20.503Z,1.60
2019-02-04T08:02:49.272Z,1.60
2019-02-04T08:05:17.858Z,1.70
2019-02-04T08:07:46.283Z,1.80
2019-02-04T08:10:15.942Z,2.00
2019-02-04T08:12:44.436Z,2.10
2019-02-04T08:15:18.530Z,2.10
2019-02-04T08:17:47.193Z,2.20
2019-02-04T08:20:15.676Z,2.30
2019-02-04T08:22:44.212Z,2.30
2019-02-04T08:25:15.032Z,2.40
2019-02-04T08:27:43.560Z,2.50
2019-02-04T08:30:17.945Z,2.60
2019-02-04T08:32:46.550Z,2.80
2019-02-04T08:35:15.049Z,3.00
2019-02-04T08:37:43.490Z,3.20
2019-02-04T08:40:14.256Z,3.30
2019-02-04T08:42:42.765Z,3.50
2019-02-04T08:45:13.416Z,3.60
2019-02-04T08:47:42.022Z,3.70
2019-02-04T08:50:13.862Z,3.80
2019-02-04T08:52:42.421Z,3.90
2019-02-04T08:55:11.203Z,4.10
2019-02-04T08:57:39.704Z,4.20
2019-02-04T09:00:12.206Z,4.40
2019-02-04T09:02:40.775Z,4.50
2019-02-04T09:05:11.336Z,4.50
2019-02-04T09:07:39.820Z,4.60
2019-02-04T09:10:11.346Z,4.60
2019-02-04T09:12:39.826Z,4.70
2019-02-04T09:15:11.883Z,4.80
2019-02-04T09:17:40.424Z,4.90
2019-02-04T09:20:12.121Z,5.00
2019-02-04T09:22:40.556Z,5.10
2019-02-04T09:25:11.960Z,5.10
2019-02-04T09:27:40.503Z,5.20
2019-02-04T09:30:12.308Z,5.20
2019-02-04T09:32:40.720Z,5.20
2019-02-04T09:35:12.941Z,5.20
2019-02-04T09:37:41.455Z,5.30
2019-02-04T09:40:15.865Z,5.40
2019-02-04T09:42:44.660Z,5.50
2019-02-04T09:45:17.610Z,5.60
2019-02-04T09:47:46.083Z,5.70
2019-02-04T09:50:21.709Z,5.80
2019-02-04T09:52:50.173Z,6.00
2019-02-04T09:55:21.340Z,6.00
2019-02-04T09:57:49.834Z,6.10
2019-02-04T10:00:21.043Z,6.20
2019-02-04T10:02:49.731Z,6.30
2019-02-04T10:05:19.120Z,6.30
2019-02-04T10:07:47.641Z,6.40
2019-02-04T10:10:18.727Z,6.50
2019-02-04T10:12:47.321Z,6.50
2019-02-04T10:15:18.769Z,6.60
2019-02-04T10:17:47.449Z,6.70
2019-02-04T10:20:17.572Z,6.70
2019-02-04T10:22:46.246Z,6.70
2019-02-04T10:25:18.054Z,6.70
2019-02-04T10:27:46.642Z,6.80
2019-02-04T10:30:17.452Z,7.00
2019-02-04T10:32:46.571Z,7.10
2019-02-04T10:35:17.194Z,7.20
2019-02-04T10:37:47.406Z,7.20
2019-02-04T10:40:18.404Z,7.30
2019-02-04T10:42:46.968Z,7.40
2019-02-04T10:45:17.038Z,7.40
2019-02-04T10:47:45.516Z,7.50
2019-02-04T10:50:17.096Z,7.50
2019-02-04T10:52:45.909Z,7.60
2019-02-04T10:55:14.745Z,7.70
2019-02-04T10:57:43.201Z,7.70
2019-02-04T11:00:23.440Z,7.90
2019-02-04T11:02:51.965Z,7.90
2019-02-04T11:05:23.663Z,7.90
2019-02-04T11:07:52.269Z,8.10
2019-02-04T11:10:25.908Z,8.20
2019-02-04T11:12:54.606Z,8.20
2019-02-04T11:15:25.638Z,8.20
2019-02-04T11:17:53.411Z,8.30
2019-02-04T11:20:27.725Z,8.40
2019-02-04T11:22:56.311Z,8.40
2019-02-04T11:25:24.948Z,8.40
2019-02-04T11:27:53.544Z,8.60
2019-02-04T11:30:24.884Z,8.60
2019-02-04T11:32:53.760Z,8.70
2019-02-04T11:35:22.370Z,8.80
2019-02-04T11:37:50.984Z,8.90
2019-02-04T11:40:22.903Z,8.90
2019-02-04T11:42:51.411Z,8.90
2019-02-04T11:45:20.056Z,8.90
2019-02-04T11:47:48.908Z,8.90
2019-02-04T11:50:17.423Z,9.00
2019-02-04T11:52:45.913Z,9.00
2019-02-04T11:55:16.301Z,8.90
2019-02-04T11:57:45.040Z,8.90
2019-02-04T12:00:21.838Z,8.90
2019-02-04T12:02:50.893Z,8.90
2019-02-04T12:05:21.365Z,8.80
2019-02-04T12:07:49.853Z,8.60
2019-02-04T12:10:26.787Z,8.50
2019-02-04T12:12:55.342Z,8.40
2019-02-04T12:15:23.840Z,8.30
2019-02-04T12:17:52.401Z,8.20
2019-02-04T12:20:20.840Z,8.10
2019-02-04T12:22:49.694Z,7.90
2019-02-04T12:25:28.223Z,7.80
2019-02-04T12:27:57.665Z,7.90
2019-02-04T12:30:31.469Z,8.10
2019-02-04T12:33:00.704Z,8.30
2019-02-04T12:35:29.351Z,8.30
2019-02-04T12:37:58.032Z,8.30
2019-02-04T12:40:27.603Z,8.30
2019-02-04T12:42:56.173Z,8.40
2019-02-04T12:45:27.633Z,8.50
2019-02-04T12:47:56.894Z,8.60
2019-02-04T12:50:25.666Z,8.70
2019-02-04T12:52:54.177Z,8.60
2019-02-04T12:55:28.101Z,8.60
2019-02-04T12:57:56.609Z,8.60
2019-02-04T13:00:27.454Z,8.70
2019-02-04T13:02:56.079Z,8.70
2019-02-04T13:05:33.507Z,8.80
2019-02-04T13:08:02.024Z,8.70
2019-02-04T13:10:30.517Z,8.70
2019-02-04T13:12:59.096Z,8.80
2019-02-04T13:15:27.693Z,8.90
2019-02-04T13:17:56.279Z,8.70
2019-02-04T13:20:24.763Z,8.70
2019-02-04T13:22:53.249Z,8.80
2019-02-04T13:25:29.173Z,8.80
2019-02-04T13:27:57.755Z,8.80
2019-02-04T13:30:30.456Z,8.80
2019-02-04T13:32:59.127Z,8.80
2019-02-04T13:35:30.774Z,8.90
2019-02-04T13:37:57.876Z,9.00
2019-02-04T13:40:30.181Z,9.00
2019-02-04T13:42:58.853Z,9.10
2019-02-04T13:45:27.543Z,9.20
2019-02-04T13:47:56.441Z,9.20
2019-02-04T13:50:25.200Z,9.20
2019-02-04T13:52:54.294Z,9.20
2019-02-04T13:55:36.781Z,9.10
2019-02-04T13:58:05.967Z,9.10
2019-02-04T14:00:35.545Z,9.10
2019-02-04T14:03:05.200Z,9.20
2019-02-04T14:05:33.690Z,9.10
2019-02-04T14:08:02.205Z,9.20
2019-02-04T14:10:35.597Z,9.20
2019-02-04T14:13:04.743Z,9.30
2019-02-04T14:15:35.469Z,9.40
2019-02-04T14:18:04.027Z,9.60
2019-02-04T14:20:32.558Z,9.60
2019-02-04T14:23:01.197Z,9.50
2019-02-04T14:25:29.681Z,9.60
2019-02-04T14:27:58.246Z,9.60
2019-02-04T14:30:32.020Z,9.60
2019-02-04T14:33:00.422Z,9.30
2019-02-04T14:35:28.968Z,9.30
2019-02-04T14:37:58.021Z,9.20
2019-02-04T14:40:26.721Z,9.20
2019-02-04T14:43:01.376Z,9.00
2019-02-04T14:45:35.569Z,9.00
2019-02-04T14:48:15.825Z,8.80
2019-02-04T14:50:58.976Z,8.60
2019-02-04T14:53:36.592Z,8.50
2019-02-04T14:56:16.840Z,8.30
2019-02-04T14:59:09.130Z,8.20
2019-02-04T15:01:46.165Z,8.10
2019-02-04T15:04:29.426Z,7.90
2019-02-04T15:07:17.091Z,7.80
2019-02-04T15:10:21.249Z,7.60
2019-02-04T15:13:26.965Z,7.60
2019-02-04T15:16:10.051Z,7.50
2019-02-04T15:19:14.221Z,7.40
2019-02-04T15:21:48.660Z,7.30
2019-02-04T15:24:26.145Z,7.20
2019-02-04T15:26:57.742Z,7.20
2019-02-04T15:29:32.022Z,7.20
2019-02-04T15:32:03.544Z,7.10
2019-02-04T15:35:03.819Z,7.10
2019-02-04T15:37:28.723Z,7.10
2019-02-04T15:40:05.988Z,7.00
2019-02-04T15:42:58.391Z,7.00
2019-02-04T15:45:44.494Z,6.90
2019-02-04T15:48:15.980Z,6.90
2019-02-04T15:50:50.037Z,6.80
2019-02-04T15:53:18.557Z,6.80
2019-02-04T15:55:47.023Z,6.70
2019-02-04T15:58:15.561Z,6.70
2019-02-04T16:00:44.526Z,6.70
2019-02-04T16:03:13.078Z,6.60
2019-02-04T16:05:41.572Z,6.60
2019-02-04T16:08:10.037Z,6.60
2019-02-04T16:10:38.450Z,6.50
2019-02-04T16:13:06.947Z,6.50
2019-02-04T16:15:35.406Z,6.50
2019-02-04T16:18:04.438Z,6.40
2019-02-04T16:20:32.899Z,6.40
2019-02-04T16:23:01.371Z,6.40
2019-02-04T16:25:29.828Z,6.30
2019-02-04T16:27:58.315Z,6.20
2019-02-04T16:30:26.921Z,6.20
2019-02-04T16:32:55.705Z,6.20
2019-02-04T16:35:24.228Z,6.10
2019-02-04T16:37:52.770Z,6.10
2019-02-04T16:40:22.554Z,6.00
2019-02-04T16:42:51.055Z,6.00
2019-02-04T16:45:24.182Z,6.00
2019-02-04T16:47:52.911Z,5.90
2019-02-04T16:50:25.864Z,5.90
2019-02-04T16:52:54.539Z,5.80
2019-02-04T16:55:23.078Z,5.70
2019-02-04T16:57:54.392Z,5.70
2019-02-04T17:00:24.836Z,5.60
2019-02-04T17:02:53.322Z,5.60
2019-02-04T17:05:23.313Z,5.60
2019-02-04T17:07:51.921Z,5.50
2019-02-04T17:10:23.094Z,5.50
2019-02-04T17:12:51.669Z,5.50
2019-02-04T17:15:20.176Z,5.40
2019-02-04T17:17:48.806Z,5.40
2019-02-04T17:20:22.971Z,5.40
2019-02-04T17:22:51.486Z,5.40
2019-02-04T17:25:19.988Z,5.40
2019-02-04T17:27:48.756Z,5.30
2019-02-04T17:30:20.297Z,5.30
2019-02-04T17:32:48.793Z,5.20
2019-02-04T17:35:17.413Z,5.20
2019-02-04T17:37:45.862Z,5.20
2019-02-04T17:40:16.882Z,5.10
2019-02-04T17:42:45.685Z,5.10
2019-02-04T17:45:16.136Z,5.10
2019-02-04T17:47:45.932Z,5.10
2019-02-04T17:50:19.545Z,5.10
2019-02-04T17:52:48.173Z,5.10
2019-02-04T17:55:18.835Z,5.10
2019-02-04T17:57:47.342Z,5.10
2019-02-04T18:00:19.784Z,5.10
2019-02-04T18:02:48.357Z,5.10
2019-02-04T18:05:16.919Z,5.10
2019-02-04T18:07:45.421Z,5.10
2019-02-04T18:10:18.512Z,5.00
2019-02-04T18:12:47.332Z,5.00
2019-02-04T18:15:18.839Z,4.90
2019-02-04T18:17:47.461Z,4.80
2019-02-04T18:20:16.572Z,4.80
2019-02-04T18:22:45.030Z,4.80
2019-02-04T18:25:21.693Z,4.80
2019-02-04T18:27:50.341Z,4.70
2019-02-04T18:30:24.092Z,4.70
2019-02-04T18:32:52.882Z,4.70
2019-02-04T18:35:21.911Z,4.80
2019-02-04T18:37:50.354Z,4.70
2019-02-04T18:40:21.208Z,4.70
2019-02-04T18:42:50.221Z,4.70
2019-02-04T18:45:24.251Z,4.60
2019-02-04T18:47:52.903Z,4.60
2019-02-04T18:50:23.337Z,4.60
2019-02-04T18:52:52.285Z,4.60
2019-02-04T18:55:23.467Z,4.60
2019-02-04T18:57:52.193Z,4.60
2019-02-04T19:00:23.081Z,4.50
2019-02-04T19:02:51.736Z,4.50
2019-02-04T19:05:20.594Z,4.50
2019-02-04T19:07:49.188Z,4.50
2019-02-04T19:10:22.494Z,4.50
2019-02-04T19:12:51.422Z,4.40
2019-02-04T19:15:27.506Z,4.40
2019-02-04T19:17:58.902Z,4.30
2019-02-04T19:20:27.492Z,4.30
2019-02-04T19:22:55.940Z,4.20
2019-02-04T19:25:24.514Z,4.20
2019-02-04T19:27:53.553Z,4.20
2019-02-04T19:30:30.651Z,4.20
2019-02-04T19:32:59.572Z,4.20
2019-02-04T19:35:28.009Z,4.20
2019-02-04T19:37:56.671Z,4.20
2019-02-04T19:40:25.358Z,4.10
2019-02-04T19:42:53.996Z,4.10
2019-02-04T19:45:24.419Z,4.10
2019-02-04T19:47:53.521Z,4.10
2019-02-04T19:50:33.949Z,4.10
2019-02-04T19:53:02.631Z,4.10
2019-02-04T19:55:31.359Z,4.00
2019-02-04T19:58:00.062Z,4.10
2019-02-04T20:00:29.011Z,4.10
2019-02-04T20:02:57.658Z,4.00
2019-02-04T20:05:30.479Z,3.90
2019-02-04T20:07:59.127Z,3.90
2019-02-04T20:10:33.741Z,3.90
2019-02-04T20:13:02.620Z,3.80
2019-02-04T20:15:32.295Z,3.80
2019-02-04T20:18:00.937Z,3.80
2019-02-04T20:20:29.820Z,3.80
2019-02-04T20:22:58.420Z,3.80
2019-02-04T20:25:29.367Z,3.80
2019-02-04T20:27:58.073Z,3.90
2019-02-04T20:30:29.149Z,3.80
2019-02-04T20:32:57.867Z,3.80
2019-02-04T20:35:26.961Z,3.70
2019-02-04T20:37:55.624Z,3.70
2019-02-04T20:40:25.781Z,3.70
2019-02-04T20:42:54.354Z,3.60
2019-02-04T20:45:23.655Z,3.60
2019-02-04T20:47:52.891Z,3.60
2019-02-04T20:50:32.740Z,3.60
2019-02-04T20:53:01.318Z,3.70
2019-02-04T20:55:30.886Z,3.70
2019-02-04T20:57:59.767Z,3.60
2019-02-04T21:00:31.953Z,3.50
2019-02-04T21:03:01.947Z,3.50
2019-02-04T21:05:30.861Z,3.60
2019-02-04T21:07:59.385Z,3.70
2019-02-04T21:10:29.246Z,3.70
2019-02-04T21:12:58.128Z,3.80
2019-02-04T21:15:26.707Z,3.80
2019-02-04T21:17:55.278Z,3.70
2019-02-04T21:20:26.812Z,3.70
2019-02-04T21:22:55.468Z,3.70
2019-02-04T21:25:24.279Z,3.70
2019-02-04T21:27:53.217Z,3.60
2019-02-04T21:30:27.505Z,3.60
2019-02-04T21:32:56.009Z,3.60
2019-02-04T21:35:24.520Z,3.60
2019-02-04T21:37:52.957Z,3.50
2019-02-04T21:40:21.574Z,3.50
2019-02-04T21:42:50.210Z,3.40
2019-02-04T21:45:26.228Z,3.30
2019-02-04T21:47:54.804Z,3.30
2019-02-04T21:50:25.984Z,3.40
2019-02-04T21:52:54.564Z,3.40
2019-02-04T21:55:24.021Z,3.50
2019-02-04T21:57:52.649Z,3.50
2019-02-04T22:00:23.707Z,3.50
2019-02-04T22:02:52.374Z,3.50
2019-02-04T22:05:23.334Z,3.50
2019-02-04T22:07:51.944Z,3.40
2019-02-04T22:10:22.469Z,3.30
2019-02-04T22:12:51.103Z,3.30
2019-02-04T22:15:19.610Z,3.30
2019-02-04T22:17:48.136Z,3.30
2019-02-04T22:20:18.489Z,3.40
2019-02-04T22:22:47.140Z,3.50
2019-02-04T22:25:21.136Z,3.50
2019-02-04T22:27:49.782Z,3.40
2019-02-04T22:30:26.166Z,3.40
2019-02-04T22:32:54.753Z,3.40
2019-02-04T22:35:23.316Z,3.40
2019-02-04T22:37:52.015Z,3.40
2019-02-04T22:40:25.382Z,3.30
2019-02-04T22:42:54.276Z,3.30
2019-02-04T22:45:22.908Z,3.20
2019-02-04T22:47:51.709Z,3.20
2019-02-04T22:50:25.241Z,3.30
2019-02-04T22:52:53.877Z,3.30
2019-02-04T22:55:31.546Z,3.30
2019-02-04T22:57:52.786Z,3.30
2019-02-04T23:00:51.422Z,3.40
2019-02-04T23:03:25.845Z,3.40
2019-02-04T23:05:54.320Z,3.40
2019-02-04T23:08:22.853Z,3.40
2019-02-04T23:10:51.601Z,3.40
2019-02-04T23:13:20.105Z,3.40
2019-02-04T23:15:48.555Z,3.40
2019-02-04T23:18:17.011Z,3.30
2019-02-04T23:20:45.542Z,3.30
2019-02-04T23:23:14.088Z,3.30
2019-02-04T23:25:43.751Z,3.30
2019-02-04T23:28:12.377Z,3.20
2019-02-04T23:30:40.984Z,3.30
2019-02-04T23:33:09.410Z,3.30
2019-02-04T23:35:37.914Z,3.30
2019-02-04T23:38:06.916Z,3.30
2019-02-04T23:40:35.369Z,3.30
2019-02-04T23:43:04.104Z,3.30
2019-02-04T23:45:32.605Z,3.30
2019-02-04T23:48:01.405Z,3.30
2019-02-04T23:50:29.935Z,3.30
2019-02-04T23:52:58.370Z,3.30
2019-02-04T23:55:26.825Z,3.30
2019-02-04T23:57:55.244Z,3.30
